createdAt,value
2018-06-22T00:00:03.448Z,2.07
2018-06-22T00:02:32.280Z,1.80
2018-06-22T00:05:01.109Z,2.10
2018-06-22T00:07:29.951Z,2.00
2018-06-22T00:09:58.788Z,2.07
2018-06-22T00:12:27.628Z,2.07
2018-06-22T00:14:56.855Z,1.90
2018-06-22T00:17:25.672Z,1.87
2018-06-22T00:19:54.529Z,2.23
2018-06-22T00:22:23.368Z,3.00
2018-06-22T00:24:52.221Z,1.97
2018-06-22T00:27:21.061Z,2.23
2018-06-22T00:29:49.904Z,2.00
2018-06-22T00:32:18.761Z,2.10
2018-06-22T00:34:47.597Z,2.30
2018-06-22T00:37:16.436Z,1.90
2018-06-22T00:39:45.277Z,1.97
2018-06-22T00:42:14.097Z,2.03
2018-06-22T00:44:42.937Z,1.93
2018-06-22T00:47:11.776Z,2.10
2018-06-22T00:49:40.673Z,1.80
2018-06-22T00:52:09.547Z,2.30
2018-06-22T00:54:39.169Z,2.60
2018-06-22T00:57:08.032Z,2.23
2018-06-22T00:59:36.891Z,2.27
2018-06-22T01:02:05.742Z,1.97
2018-06-22T01:04:34.587Z,1.80
2018-06-22T01:07:03.443Z,1.93
2018-06-22T01:09:32.289Z,1.90
2018-06-22T01:12:01.149Z,2.00
2018-06-22T01:14:30.038Z,1.70
2018-06-22T01:16:58.877Z,1.87
2018-06-22T01:19:27.702Z,2.57
2018-06-22T01:21:56.576Z,2.00
2018-06-22T01:24:25.401Z,1.70
2018-06-22T01:26:54.236Z,1.77
2018-06-22T01:29:28.628Z,2.03
2018-06-22T01:31:57.546Z,2.17
2018-06-22T01:34:26.483Z,1.73
2018-06-22T01:36:55.332Z,1.60
2018-06-22T01:39:24.378Z,1.80
2018-06-22T01:41:53.281Z,1.87
2018-06-22T01:44:22.133Z,2.00
2018-06-22T01:46:50.963Z,2.33
2018-06-22T01:49:19.802Z,2.33
2018-06-22T01:51:48.656Z,2.63
2018-06-22T01:54:18.640Z,1.97
2018-06-22T01:56:47.499Z,2.53
2018-06-22T01:59:16.335Z,2.50
2018-06-22T02:01:45.190Z,2.20
2018-06-22T02:04:15.132Z,2.20
2018-06-22T02:06:43.981Z,2.13
2018-06-22T02:09:13.464Z,2.30
2018-06-22T02:11:42.347Z,1.63
2018-06-22T02:14:11.216Z,2.00
2018-06-22T02:16:40.073Z,1.73
2018-06-22T02:19:08.956Z,1.80
2018-06-22T02:21:37.806Z,2.20
2018-06-22T02:24:06.642Z,1.87
2018-06-22T02:26:35.495Z,1.77
2018-06-22T02:29:04.315Z,2.00
2018-06-22T02:31:33.164Z,1.70
2018-06-22T02:34:02.001Z,2.10
2018-06-22T02:36:30.828Z,1.83
2018-06-22T02:38:59.655Z,2.23
2018-06-22T02:41:28.493Z,2.43
2018-06-22T02:43:57.321Z,2.30
2018-06-22T02:46:27.193Z,1.07
2018-06-22T02:48:56.102Z,2.80
2018-06-22T02:51:24.928Z,2.70
2018-06-22T02:53:53.772Z,1.83
2018-06-22T02:56:22.648Z,2.00
2018-06-22T02:58:51.488Z,2.30
2018-06-22T03:01:20.331Z,1.87
2018-06-22T03:03:49.352Z,1.70
2018-06-22T03:06:18.196Z,1.70
2018-06-22T03:08:47.053Z,1.83
2018-06-22T03:11:15.882Z,1.23
2018-06-22T03:13:44.733Z,1.03
2018-06-22T03:16:13.665Z,1.33
2018-06-22T03:18:42.885Z,1.20
2018-06-22T03:21:12.224Z,1.60
2018-06-22T03:23:41.843Z,1.37
2018-06-22T03:26:10.789Z,1.67
2018-06-22T03:28:39.699Z,1.90
2018-06-22T03:31:09.075Z,2.00
2018-06-22T03:33:37.921Z,1.50
2018-06-22T03:36:06.787Z,1.23
2018-06-22T03:38:35.630Z,2.37
2018-06-22T03:41:04.461Z,1.20
2018-06-22T03:43:33.306Z,1.53
2018-06-22T03:46:02.201Z,1.43
2018-06-22T03:48:31.049Z,1.30
2018-06-22T03:50:59.840Z,1.77
2018-06-22T03:53:28.677Z,1.87
2018-06-22T03:55:57.508Z,1.63
2018-06-22T03:58:26.393Z,1.63
2018-06-22T04:00:55.237Z,1.40
2018-06-22T04:03:24.080Z,1.33
2018-06-22T04:05:52.908Z,1.93
2018-06-22T04:08:21.751Z,2.13
2018-06-22T04:10:50.621Z,2.03
2018-06-22T04:13:19.494Z,2.07
2018-06-22T04:15:48.429Z,1.80
2018-06-22T04:18:17.335Z,1.90
2018-06-22T04:20:45.895Z,1.70
2018-06-22T04:23:14.608Z,1.83
2018-06-22T04:25:43.475Z,2.40
2018-06-22T04:28:12.329Z,2.13
2018-06-22T04:30:41.244Z,2.07
2018-06-22T04:33:10.184Z,2.70
2018-06-22T04:35:39.131Z,2.00
2018-06-22T04:38:08.036Z,2.77
2018-06-22T04:40:36.904Z,2.30
2018-06-22T04:43:05.733Z,1.80
2018-06-22T04:45:35.454Z,2.90
2018-06-22T04:48:04.436Z,1.70
2018-06-22T04:50:33.059Z,1.97
2018-06-22T04:53:01.820Z,2.40
2018-06-22T04:55:30.720Z,2.10
2018-06-22T04:57:59.545Z,2.10
2018-06-22T05:00:28.174Z,2.13
2018-06-22T05:02:56.901Z,2.30
2018-06-22T05:05:26.583Z,2.00
2018-06-22T05:07:55.220Z,2.33
2018-06-22T05:10:23.937Z,2.27
2018-06-22T05:12:52.823Z,2.07
2018-06-22T05:15:21.656Z,2.10
2018-06-22T05:17:50.866Z,1.80
2018-06-22T05:20:19.683Z,2.03
2018-06-22T05:22:48.509Z,2.13
2018-06-22T05:25:17.372Z,2.23
2018-06-22T05:27:46.229Z,2.20
2018-06-22T05:30:15.066Z,2.30
2018-06-22T05:32:43.929Z,2.10
2018-06-22T05:35:12.848Z,1.93
2018-06-22T05:37:41.797Z,1.80
2018-06-22T05:40:10.708Z,2.10
2018-06-22T05:42:39.605Z,2.07
2018-06-22T05:45:08.509Z,2.07
2018-06-22T05:47:37.451Z,2.30
2018-06-22T05:50:06.321Z,2.30
2018-06-22T05:52:35.296Z,1.80
2018-06-22T05:55:04.139Z,1.77
2018-06-22T05:57:32.981Z,1.50
2018-06-22T06:00:01.838Z,1.57
2018-06-22T06:02:30.688Z,1.83
2018-06-22T06:04:59.528Z,1.60
2018-06-22T06:07:29.371Z,1.67
2018-06-22T06:09:58.185Z,1.77
2018-06-22T06:12:27.225Z,1.83
2018-06-22T06:14:56.025Z,1.70
2018-06-22T06:17:24.993Z,1.70
2018-06-22T06:19:53.908Z,1.80
2018-06-22T06:22:22.745Z,1.73
2018-06-22T06:24:51.553Z,1.67
2018-06-22T06:27:20.453Z,2.07
2018-06-22T06:29:49.376Z,2.00
2018-06-22T06:32:18.216Z,2.07
2018-06-22T06:34:47.055Z,1.63
2018-06-22T06:37:15.913Z,1.80
2018-06-22T06:39:44.750Z,1.90
2018-06-22T06:42:13.842Z,1.93
2018-06-22T06:44:42.908Z,2.20
2018-06-22T06:47:11.854Z,1.83
2018-06-22T06:49:40.883Z,1.83
2018-06-22T06:52:09.670Z,1.57
2018-06-22T06:54:38.751Z,2.10
2018-06-22T06:57:07.641Z,2.70
2018-06-22T06:59:36.629Z,3.10
2018-06-22T07:02:05.600Z,2.40
2018-06-22T07:04:34.428Z,2.10
2018-06-22T07:07:03.313Z,2.47
2018-06-22T07:09:32.154Z,2.43
2018-06-22T07:12:01.017Z,2.43
2018-06-22T07:14:29.856Z,2.03
2018-06-22T07:16:58.884Z,3.03
2018-06-22T07:19:27.831Z,3.50
2018-06-22T07:21:56.646Z,2.70
2018-06-22T07:24:25.531Z,2.60
2018-06-22T07:26:54.405Z,2.80
2018-06-22T07:29:23.250Z,2.90
2018-06-22T07:31:52.088Z,2.60
2018-06-22T07:34:20.905Z,2.40
2018-06-22T07:36:49.756Z,2.60
2018-06-22T07:39:18.608Z,2.10
2018-06-22T07:41:47.449Z,2.70
2018-06-22T07:44:16.464Z,2.43
2018-06-22T07:46:45.329Z,2.47
2018-06-22T07:49:14.178Z,3.07
2018-06-22T07:51:43.034Z,2.53
2018-06-22T07:54:11.973Z,3.13
2018-06-22T07:56:40.811Z,2.73
2018-06-22T07:59:09.690Z,2.53
2018-06-22T08:01:38.596Z,2.10
2018-06-22T08:04:07.833Z,2.60
2018-06-22T08:06:36.760Z,2.50
2018-06-22T08:09:07.499Z,2.83
2018-06-22T08:11:36.721Z,2.87
2018-06-22T08:14:05.772Z,3.07
2018-06-22T08:16:34.589Z,2.87
2018-06-22T08:19:03.490Z,4.13
2018-06-22T08:21:32.323Z,3.03
2018-06-22T08:24:01.160Z,3.03
2018-06-22T08:26:29.993Z,3.70
2018-06-22T08:28:58.889Z,1.67
2018-06-22T08:31:27.716Z,2.53
2018-06-22T08:33:56.716Z,2.90
2018-06-22T08:36:25.540Z,2.80
2018-06-22T08:38:54.388Z,2.83
2018-06-22T08:41:23.372Z,2.93
2018-06-22T08:43:52.228Z,2.93
2018-06-22T08:46:21.084Z,2.57
2018-06-22T08:48:49.955Z,3.00
2018-06-22T08:51:18.825Z,2.23
2018-06-22T08:53:47.789Z,3.30
2018-06-22T08:56:16.600Z,3.33
2018-06-22T08:58:45.559Z,3.43
2018-06-22T09:01:15.049Z,3.20
2018-06-22T09:03:43.279Z,3.60
2018-06-22T09:06:12.124Z,3.50
2018-06-22T09:08:41.033Z,3.03
2018-06-22T09:11:09.892Z,3.33
2018-06-22T09:13:38.840Z,3.00
2018-06-22T09:16:07.798Z,3.20
2018-06-22T09:18:36.655Z,2.47
2018-06-22T09:21:05.508Z,3.33
2018-06-22T09:23:34.343Z,3.00
2018-06-22T09:26:03.216Z,2.93
2018-06-22T09:28:32.049Z,2.90
2018-06-22T09:31:01.004Z,3.50
2018-06-22T09:33:29.836Z,2.90
2018-06-22T09:35:58.682Z,2.40
2018-06-22T09:38:27.569Z,3.50
2018-06-22T09:40:56.461Z,3.00
2018-06-22T09:43:25.328Z,2.90
2018-06-22T09:45:54.193Z,2.93
2018-06-22T09:48:22.953Z,2.60
2018-06-22T09:50:51.617Z,3.33
2018-06-22T09:53:20.452Z,2.47
2018-06-22T09:55:49.354Z,2.43
2018-06-22T09:58:18.217Z,2.83
2018-06-22T10:00:53.057Z,2.27
2018-06-22T10:03:23.093Z,1.63
2018-06-22T10:05:51.969Z,2.40
2018-06-22T10:08:20.834Z,2.60
2018-06-22T10:10:49.597Z,2.13
2018-06-22T10:13:18.432Z,3.27
2018-06-22T10:15:52.935Z,1.63
2018-06-22T10:18:22.552Z,3.23
2018-06-22T10:20:51.401Z,1.90
2018-06-22T10:23:20.261Z,2.00
2018-06-22T10:25:49.113Z,2.00
2018-06-22T10:28:18.848Z,2.83
2018-06-22T10:30:47.697Z,2.77
2018-06-22T10:33:16.516Z,1.87
2018-06-22T10:35:45.377Z,2.83
2018-06-22T10:38:14.249Z,1.80
2018-06-22T10:40:43.108Z,2.50
2018-06-22T10:43:12.012Z,1.60
2018-06-22T10:45:40.902Z,2.90
2018-06-22T10:48:09.886Z,2.60
2018-06-22T10:50:38.741Z,2.00
2018-06-22T10:53:07.611Z,2.50
2018-06-22T10:55:36.461Z,2.00
2018-06-22T10:58:05.905Z,3.03
2018-06-22T11:00:34.797Z,2.57
2018-06-22T11:03:03.632Z,2.40
2018-06-22T11:05:32.472Z,3.40
2018-06-22T11:08:01.363Z,1.83
2018-06-22T11:10:30.177Z,2.10
2018-06-22T11:12:59.017Z,2.20
2018-06-22T11:15:27.844Z,3.07
2018-06-22T11:17:56.677Z,2.83
2018-06-22T11:20:25.520Z,2.93
2018-06-22T11:22:54.359Z,2.27
2018-06-22T11:25:23.222Z,2.80
2018-06-22T11:27:52.085Z,3.00
2018-06-22T11:30:21.000Z,2.30
2018-06-22T11:32:49.869Z,1.80
2018-06-22T11:35:18.820Z,1.97
2018-06-22T11:37:47.684Z,1.97
2018-06-22T11:40:17.526Z,1.77
2018-06-22T11:42:46.586Z,3.10
2018-06-22T11:45:15.669Z,1.70
2018-06-22T11:47:46.127Z,1.77
2018-06-22T11:50:15.053Z,2.90
2018-06-22T11:52:43.940Z,3.20
2018-06-22T11:55:12.833Z,3.37
2018-06-22T11:57:41.870Z,3.27
2018-06-22T12:00:10.864Z,3.53
2018-06-22T12:02:39.911Z,3.43
2018-06-22T12:05:10.828Z,2.40
2018-06-22T12:07:39.720Z,3.40
2018-06-22T12:10:08.632Z,2.77
2018-06-22T12:12:37.706Z,2.03
2018-06-22T12:15:07.598Z,3.00
2018-06-22T12:17:36.470Z,3.73
2018-06-22T12:20:05.646Z,2.23
2018-06-22T12:22:34.472Z,3.03
2018-06-22T12:25:03.366Z,3.37
2018-06-22T12:27:32.246Z,3.43
2018-06-22T12:30:01.140Z,3.20
2018-06-22T12:32:29.993Z,3.57
2018-06-22T12:34:58.860Z,3.10
2018-06-22T12:37:31.711Z,3.07
2018-06-22T12:40:00.509Z,2.93
2018-06-22T12:42:29.377Z,3.00
2018-06-22T12:44:58.368Z,3.10
2018-06-22T12:47:27.257Z,3.03
2018-06-22T12:49:56.113Z,2.97
2018-06-22T12:52:24.952Z,3.13
2018-06-22T12:54:53.792Z,3.23
2018-06-22T12:57:22.726Z,3.37
2018-06-22T12:59:51.660Z,3.17
2018-06-22T13:02:20.635Z,3.90
2018-06-22T13:04:49.541Z,2.77
2018-06-22T13:07:18.360Z,2.90
2018-06-22T13:09:47.620Z,3.43
2018-06-22T13:12:16.564Z,3.17
2018-06-22T13:14:45.526Z,3.00
2018-06-22T13:17:14.668Z,2.97
2018-06-22T13:19:43.726Z,3.13
2018-06-22T13:22:13.935Z,2.53
2018-06-22T13:24:43.503Z,2.27
2018-06-22T13:27:12.622Z,1.90
2018-06-22T13:29:41.972Z,3.10
2018-06-22T13:32:11.697Z,2.80
2018-06-22T13:34:40.737Z,2.37
2018-06-22T13:37:09.667Z,2.60
2018-06-22T13:39:39.193Z,2.57
2018-06-22T13:42:08.187Z,2.73
2018-06-22T13:44:37.633Z,2.80
2018-06-22T13:47:06.512Z,3.00
2018-06-22T13:49:35.388Z,2.30
2018-06-22T13:52:04.286Z,2.20
2018-06-22T13:54:33.148Z,3.23
2018-06-22T13:57:02.081Z,3.57
2018-06-22T13:59:32.608Z,2.60
2018-06-22T14:02:02.401Z,2.43
2018-06-22T14:04:36.867Z,3.33
2018-06-22T14:07:07.121Z,3.03
2018-06-22T14:09:36.523Z,3.40
2018-06-22T14:12:05.703Z,3.50
2018-06-22T14:14:34.580Z,3.30
2018-06-22T14:17:03.529Z,3.27
2018-06-22T14:19:32.404Z,4.10
2018-06-22T14:22:07.755Z,2.57
2018-06-22T14:24:36.616Z,3.20
2018-06-22T14:27:05.699Z,3.33
2018-06-22T14:29:34.565Z,3.27
2018-06-22T14:32:03.468Z,3.53
2018-06-22T14:34:32.335Z,3.10
2018-06-22T14:37:01.210Z,3.50
2018-06-22T14:39:30.177Z,2.80
2018-06-22T14:41:59.037Z,3.03
2018-06-22T14:44:27.890Z,2.80
2018-06-22T14:46:56.728Z,2.57
2018-06-22T14:49:25.717Z,2.87
2018-06-22T14:52:01.073Z,2.93
2018-06-22T14:54:35.280Z,2.80
2018-06-22T14:57:09.571Z,2.40
2018-06-22T14:59:43.979Z,2.57
2018-06-22T15:02:18.367Z,3.57
2018-06-22T15:04:52.863Z,2.73
2018-06-22T15:07:27.201Z,3.00
2018-06-22T15:09:56.054Z,2.80
2018-06-22T15:12:24.879Z,2.93
2018-06-22T15:14:53.743Z,3.67
2018-06-22T15:17:22.646Z,3.10
2018-06-22T15:19:51.480Z,3.00
2018-06-22T15:22:20.316Z,3.50
2018-06-22T15:24:49.165Z,3.30
2018-06-22T15:27:18.029Z,4.10
2018-06-22T15:29:46.887Z,2.47
2018-06-22T15:32:16.013Z,3.73
2018-06-22T15:34:50.515Z,3.53
2018-06-22T15:37:24.911Z,2.83
2018-06-22T15:39:59.374Z,3.80
2018-06-22T15:42:33.847Z,3.57
2018-06-22T15:45:08.825Z,3.70
2018-06-22T15:47:43.332Z,3.40
2018-06-22T15:50:17.821Z,4.30
2018-06-22T15:52:52.368Z,3.63
2018-06-22T15:55:23.121Z,2.77
2018-06-22T15:57:52.329Z,3.10
2018-06-22T16:00:21.787Z,3.00
2018-06-22T16:02:55.975Z,3.10
2018-06-22T16:05:24.810Z,2.67
2018-06-22T16:07:54.897Z,2.83
2018-06-22T16:10:23.880Z,2.57
2018-06-22T16:12:52.822Z,3.90
2018-06-22T16:15:27.228Z,3.40
2018-06-22T16:18:01.812Z,3.23
2018-06-22T16:20:36.415Z,3.83
2018-06-22T16:23:10.951Z,4.30
2018-06-22T16:25:45.405Z,4.00
2018-06-22T16:28:14.343Z,4.60
2018-06-22T16:30:43.285Z,4.17
2018-06-22T16:33:12.141Z,5.50
2018-06-22T16:35:41.073Z,3.73
2018-06-22T16:38:10.129Z,4.50
2018-06-22T16:40:39.085Z,3.97
2018-06-22T16:43:08.340Z,4.40
2018-06-22T16:45:37.327Z,4.93
2018-06-22T16:48:06.334Z,4.23
2018-06-22T16:50:35.260Z,4.73
2018-06-22T16:53:04.289Z,5.17
2018-06-22T16:55:33.021Z,4.57
2018-06-22T16:58:01.878Z,3.60
2018-06-22T17:00:30.657Z,4.47
2018-06-22T17:02:59.551Z,4.07
2018-06-22T17:05:28.671Z,4.00
2018-06-22T17:08:02.879Z,3.73
2018-06-22T17:10:37.178Z,5.13
2018-06-22T17:13:11.722Z,5.67
2018-06-22T17:15:45.923Z,4.57
2018-06-22T17:18:20.265Z,5.30
2018-06-22T17:20:49.179Z,2.90
2018-06-22T17:23:18.053Z,3.43
2018-06-22T17:25:47.073Z,4.70
2018-06-22T17:28:15.916Z,3.33
2018-06-22T17:30:44.838Z,4.60
2018-06-22T17:33:13.724Z,3.97
2018-06-22T17:35:42.569Z,4.57
2018-06-22T17:38:11.404Z,3.43
2018-06-22T17:40:40.282Z,3.40
2018-06-22T17:43:09.220Z,4.27
2018-06-22T17:45:38.122Z,4.10
2018-06-22T17:48:07.094Z,3.60
2018-06-22T17:50:35.982Z,3.90
2018-06-22T17:53:04.844Z,3.33
2018-06-22T17:55:33.750Z,3.47
2018-06-22T17:58:02.712Z,3.90
2018-06-22T18:00:37.049Z,4.10
2018-06-22T18:03:11.233Z,3.47
2018-06-22T18:05:45.553Z,3.53
2018-06-22T18:08:19.995Z,3.30
2018-06-22T18:10:54.217Z,4.00
2018-06-22T18:13:23.090Z,5.33
2018-06-22T18:15:51.917Z,4.00
2018-06-22T18:18:20.789Z,4.13
2018-06-22T18:20:49.668Z,3.93
2018-06-22T18:23:18.560Z,3.87
2018-06-22T18:25:47.401Z,3.87
2018-06-22T18:28:17.187Z,3.47
2018-06-22T18:30:46.011Z,3.93
2018-06-22T18:33:15.056Z,3.30
2018-06-22T18:35:43.841Z,3.60
2018-06-22T18:38:13.163Z,3.50
2018-06-22T18:40:42.016Z,3.23
2018-06-22T18:43:15.113Z,2.90
2018-06-22T18:45:44.082Z,2.47
2018-06-22T18:48:13.168Z,3.27
2018-06-22T18:50:42.017Z,3.40
2018-06-22T18:53:16.564Z,3.00
2018-06-22T18:55:50.788Z,3.20
2018-06-22T18:58:25.045Z,3.10
2018-06-22T19:00:59.321Z,3.03
2018-06-22T19:03:33.528Z,3.57
2018-06-22T19:06:02.463Z,3.13
2018-06-22T19:08:31.376Z,4.27
2018-06-22T19:11:01.271Z,3.87
2018-06-22T19:13:30.195Z,3.90
2018-06-22T19:15:59.066Z,2.97
2018-06-22T19:18:27.901Z,3.33
2018-06-22T19:20:57.634Z,3.23
2018-06-22T19:23:27.376Z,3.80
2018-06-22T19:25:56.223Z,2.80
2018-06-22T19:28:25.068Z,3.80
2018-06-22T19:30:53.920Z,3.37
2018-06-22T19:33:23.067Z,3.60
2018-06-22T19:35:51.917Z,2.87
2018-06-22T19:38:20.769Z,3.00
2018-06-22T19:40:49.616Z,2.70
2018-06-22T19:43:23.867Z,3.13
2018-06-22T19:45:58.130Z,2.80
2018-06-22T19:48:32.521Z,2.70
2018-06-22T19:51:06.921Z,3.37
2018-06-22T19:53:42.220Z,2.57
2018-06-22T19:56:11.090Z,3.17
2018-06-22T19:58:39.909Z,2.97
2018-06-22T20:01:08.881Z,4.40
2018-06-22T20:03:37.742Z,3.00
2018-06-22T20:06:06.881Z,3.10
2018-06-22T20:08:35.887Z,3.27
2018-06-22T20:11:04.946Z,3.50
2018-06-22T20:13:34.004Z,3.70
2018-06-22T20:16:02.970Z,3.20
2018-06-22T20:18:32.010Z,3.53
2018-06-22T20:21:00.899Z,3.40
2018-06-22T20:23:29.863Z,3.90
2018-06-22T20:25:58.728Z,2.67
2018-06-22T20:28:27.616Z,3.70
2018-06-22T20:30:56.478Z,3.30
2018-06-22T20:33:25.337Z,3.20
2018-06-22T20:35:59.694Z,2.67
2018-06-22T20:38:33.987Z,3.23
2018-06-22T20:41:08.185Z,3.23
2018-06-22T20:43:42.348Z,2.77
2018-06-22T20:46:11.200Z,2.90
2018-06-22T20:48:47.999Z,3.20
2018-06-22T20:51:16.623Z,3.60
2018-06-22T20:53:45.394Z,4.37
2018-06-22T20:56:14.298Z,4.30
2018-06-22T20:58:43.142Z,4.17
2018-06-22T21:01:12.002Z,4.07
2018-06-22T21:03:40.857Z,4.07
2018-06-22T21:06:09.693Z,4.67
2018-06-22T21:08:38.578Z,3.40
2018-06-22T21:11:07.424Z,4.43
2018-06-22T21:13:36.287Z,4.73
2018-06-22T21:16:05.219Z,4.07
2018-06-22T21:18:34.092Z,4.67
2018-06-22T21:21:08.565Z,5.03
2018-06-22T21:23:37.447Z,3.43
2018-06-22T21:26:06.349Z,3.83
2018-06-22T21:28:40.761Z,4.00
2018-06-22T21:31:15.141Z,3.00
2018-06-22T21:33:49.425Z,3.80
2018-06-22T21:36:23.862Z,4.93
2018-06-22T21:38:57.543Z,3.20
2018-06-22T21:41:26.377Z,4.07
2018-06-22T21:43:55.419Z,5.80
2018-06-22T21:46:24.200Z,2.17
2018-06-22T21:48:52.911Z,3.03
2018-06-22T21:51:21.764Z,4.30
2018-06-22T21:53:50.610Z,3.83
2018-06-22T21:56:19.460Z,5.23
2018-06-22T21:58:48.308Z,4.93
2018-06-22T22:01:17.124Z,5.53
2018-06-22T22:03:45.999Z,3.20
2018-06-22T22:06:14.885Z,5.80
2018-06-22T22:08:43.661Z,6.43
2018-06-22T22:11:12.513Z,4.43
2018-06-22T22:13:41.427Z,6.07
2018-06-22T22:16:10.356Z,5.27
2018-06-22T22:18:39.205Z,5.50
2018-06-22T22:21:08.064Z,5.40
2018-06-22T22:23:37.048Z,6.20
2018-06-22T22:26:05.900Z,5.40
2018-06-22T22:28:34.778Z,5.10
2018-06-22T22:31:03.646Z,4.67
2018-06-22T22:33:32.538Z,4.17
2018-06-22T22:36:01.425Z,5.67
2018-06-22T22:38:30.308Z,5.97
2018-06-22T22:40:59.169Z,2.63
2018-06-22T22:43:28.045Z,3.83
2018-06-22T22:45:56.890Z,5.33
2018-06-22T22:48:25.740Z,5.20
2018-06-22T22:50:54.586Z,5.63
2018-06-22T22:53:23.403Z,5.60
2018-06-22T22:55:52.243Z,3.50
2018-06-22T22:58:21.080Z,5.60
2018-06-22T23:00:49.963Z,5.77
2018-06-22T23:03:18.830Z,3.97
2018-06-22T23:05:47.697Z,3.43
2018-06-22T23:08:16.592Z,6.17
2018-06-22T23:10:45.440Z,4.73
2018-06-22T23:13:14.291Z,5.80
2018-06-22T23:15:43.132Z,5.30
2018-06-22T23:18:12.120Z,4.83
2018-06-22T23:20:40.812Z,5.03
2018-06-22T23:23:20.984Z,3.93
2018-06-22T23:25:49.832Z,4.30
2018-06-22T23:28:18.756Z,6.13
2018-06-22T23:30:47.593Z,3.60
2018-06-22T23:33:16.305Z,6.70
2018-06-22T23:35:45.004Z,4.60
2018-06-22T23:38:13.849Z,6.07
2018-06-22T23:40:42.698Z,5.27
2018-06-22T23:43:11.564Z,6.00
2018-06-22T23:45:40.406Z,5.63
2018-06-22T23:48:10.403Z,4.53
2018-06-22T23:50:39.246Z,4.17
2018-06-22T23:53:08.108Z,4.00
2018-06-22T23:55:37.001Z,5.63
2018-06-22T23:58:05.984Z,4.97
